Time;durP1;ratioP1;P1;durP2;ratioP2;P2;SDS_P1;SDS_P2;PMS_P1;PMS_P2;Temp;Humidity;BMP_temperature;BMP_pressure;BME280_temperature;BME280_humidity;BME280_pressure;Samples;Min_cycle;Max_cycle;Signal;HPM_P1;HPM_P2
2021/12/14 00:00:17;;;;;;;44.72;16.10;;;;;;;;;;5006160;28;20502;-75
2021/12/14 00:02:45;;;;;;;45.70;20.23;;;;;;;;;;5007373;28;20103;-75
2021/12/14 00:05:14;;;;;;;52.13;18.83;;;;;;;;;;4971292;28;20295;-75
2021/12/14 00:07:42;;;;;;;46.30;16.45;;;;;;;;;;5009575;28;20033;-75
2021/12/14 00:10:49;;;;;;;36.63;15.77;;;;;;;;;;5006636;28;20050;-75
2021/12/14 00:13:07;;;;;;;31.75;12.82;;;;;;;;;;4999901;23;20046;-77
2021/12/14 00:15:35;;;;;;;32.38;12.27;;;;;;;;;;4998137;28;20121;-74
2021/12/14 00:18:06;;;;;;;31.23;12.70;;;;;;;;;;4986396;28;20038;-74
2021/12/14 00:20:36;;;;;;;33.25;12.82;;;;;;;;;;4992180;28;20494;-75
2021/12/14 00:25:32;;;;;;;37.70;12.07;;;;;;;;;;4995839;23;20568;-85
2021/12/14 00:28:02;;;;;;;37.83;12.80;;;;;;;;;;4999094;28;20053;-83
2021/12/14 00:30:29;;;;;;;37.03;13.40;;;;;;;;;;5004009;22;20058;-74
2021/12/14 00:32:57;;;;;;;20.58;10.35;;;;;;;;;;4976123;28;20081;-75
2021/12/14 00:35:24;;;;;;;32.78;13.32;;;;;;;;;;5021885;28;20050;-75
2021/12/14 00:37:54;;;;;;;36.65;12.38;;;;;;;;;;4999951;28;20074;-74
2021/12/14 00:40:31;;;;;;;31.75;13.15;;;;;;;;;;4993382;28;20492;-75
2021/12/14 00:42:59;;;;;;;26.80;11.73;;;;;;;;;;5009112;28;20475;-74
2021/12/14 00:45:27;;;;;;;35.67;13.20;;;;;;;;;;4999789;28;20129;-75
2021/12/14 00:47:55;;;;;;;33.67;13.32;;;;;;;;;;4993267;28;20038;-74
2021/12/14 00:50:24;;;;;;;34.65;12.40;;;;;;;;;;4993965;28;20038;-75
2021/12/14 00:52:52;;;;;;;55.55;15.65;;;;;;;;;;4982302;28;20046;-75
2021/12/14 00:55:23;;;;;;;31.00;12.13;;;;;;;;;;4993062;28;20062;-75
2021/12/14 00:57:52;;;;;;;;;;;;;;;;;;4968907;28;20056;-74
2021/12/14 01:00:25;;;;;;;46.70;14.65;;;;;;;;;;4982324;28;19925;-74
2021/12/14 01:02:52;;;;;;;32.58;12.98;;;;;;;;;;4991715;28;20038;-75
2021/12/14 01:05:23;;;;;;;54.35;16.02;;;;;;;;;;4993162;28;20096;-75
2021/12/14 01:07:50;;;;;;;34.78;13.63;;;;;;;;;;5011122;28;20401;-75
2021/12/14 01:10:24;;;;;;;41.08;13.82;;;;;;;;;;4992949;28;20514;-75
2021/12/14 01:12:55;;;;;;;38.15;13.75;;;;;;;;;;5010636;28;20072;-75
2021/12/14 01:15:42;;;;;;;37.88;13.85;;;;;;;;;;4991066;28;20145;-75
2021/12/14 01:18:29;;;;;;;42.83;14.15;;;;;;;;;;4989741;28;20046;-74
2021/12/14 01:21:01;;;;;;;41.92;14.48;;;;;;;;;;4973404;28;20047;-75
2021/12/14 01:23:33;;;;;;;54.40;16.10;;;;;;;;;;4981670;28;20050;-75
2021/12/14 01:26:07;;;;;;;38.50;14.35;;;;;;;;;;4969358;28;20487;-74
2021/12/14 01:28:35;;;;;;;47.45;15.40;;;;;;;;;;4991023;28;20046;-74
2021/12/14 01:31:21;;;;;;;49.13;15.95;;;;;;;;;;4986910;28;20470;-75
2021/12/14 01:33:51;;;;;;;34.20;13.25;;;;;;;;;;4966432;28;20469;-75
2021/12/14 01:36:31;;;;;;;30.98;12.52;;;;;;;;;;4987572;28;20049;-75
2021/12/14 01:41:58;;;;;;;33.50;11.93;;;;;;;;;;4983544;28;20073;-74
2021/12/14 01:44:28;;;;;;;34.88;13.48;;;;;;;;;;4991185;28;20564;-75
2021/12/14 01:47:00;;;;;;;45.22;14.52;;;;;;;;;;4986884;28;20052;-75
2021/12/14 01:50:05;;;;;;;40.38;14.32;;;;;;;;;;4923986;29;20524;-75
2021/12/14 01:52:41;;;;;;;40.75;14.20;;;;;;;;;;4928204;29;20047;-75
2021/12/14 01:55:14;;;;;;;34.60;14.45;;;;;;;;;;4924763;29;20048;-75
2021/12/14 01:57:42;;;;;;;27.05;14.20;;;;;;;;;;4927175;29;20723;-75
2021/12/14 02:00:12;;;;;;;32.70;13.63;;;;;;;;;;4919496;29;20124;-75
2021/12/14 02:02:45;;;;;;;60.13;16.35;;;;;;;;;;4936643;29;20048;-75
2021/12/14 02:05:19;;;;;;;36.77;12.50;;;;;;;;;;4897588;29;20164;-74
2021/12/14 02:07:46;;;;;;;48.05;15.85;;;;;;;;;;4913948;29;20275;-75
2021/12/14 02:10:21;;;;;;;35.33;14.93;;;;;;;;;;4928827;29;20047;-74
2021/12/14 02:12:48;;;;;;;42.97;15.82;;;;;;;;;;4926063;29;20055;-74
2021/12/14 02:15:23;;;;;;;61.10;17.90;;;;;;;;;;4911749;29;20055;-74
2021/12/14 02:17:53;;;;;;;71.63;17.27;;;;;;;;;;4920534;29;20087;-74
2021/12/14 02:20:23;;;;;;;93.35;20.17;;;;;;;;;;4928357;29;20123;-74
2021/12/14 02:22:51;;;;;;;76.28;19.02;;;;;;;;;;4913486;29;20048;-74
2021/12/14 02:25:19;;;;;;;77.28;18.10;;;;;;;;;;4959353;28;20395;-74
2021/12/14 02:27:48;;;;;;;36.25;13.70;;;;;;;;;;4973721;28;20042;-74
2021/12/14 02:30:17;;;;;;;44.90;14.40;;;;;;;;;;4987414;28;20080;-74
2021/12/14 02:32:45;;;;;;;46.75;14.50;;;;;;;;;;5007585;28;20049;-74
2021/12/14 02:35:14;;;;;;;31.75;13.48;;;;;;;;;;5009541;28;20080;-74
2021/12/14 02:37:46;;;;;;;47.83;14.63;;;;;;;;;;4974732;28;20050;-75
2021/12/14 02:40:20;;;;;;;55.53;15.65;;;;;;;;;;4990187;28;20454;-74
2021/12/14 02:42:50;;;;;;;32.17;13.82;;;;;;;;;;4990504;28;20162;-74
2021/12/14 02:45:22;;;;;;;35.00;14.40;;;;;;;;;;4986594;28;20048;-75
2021/12/14 02:47:50;;;;;;;38.78;14.80;;;;;;;;;;4981327;28;20038;-75
2021/12/14 02:50:18;;;;;;;31.27;14.60;;;;;;;;;;4972933;28;20120;-75
2021/12/14 02:52:45;;;;;;;60.15;19.15;;;;;;;;;;5008749;28;20046;-75
2021/12/14 02:55:16;;;;;;;64.05;18.48;;;;;;;;;;5007938;28;20046;-74
2021/12/14 02:57:47;;;;;;;45.77;15.70;;;;;;;;;;4991354;28;20438;-75
2021/12/14 03:00:17;;;;;;;50.70;15.02;;;;;;;;;;5007731;28;20363;-75
2021/12/14 03:02:45;;;;;;;55.13;15.68;;;;;;;;;;5002441;28;20046;-75
2021/12/14 03:05:20;;;;;;;37.28;13.60;;;;;;;;;;4976740;28;20156;-74
2021/12/14 03:07:49;;;;;;;34.05;13.68;;;;;;;;;;4990698;28;20038;-74
2021/12/14 03:10:33;;;;;;;39.80;14.13;;;;;;;;;;5009056;28;20072;-74
2021/12/14 03:13:06;;;;;;;43.60;14.55;;;;;;;;;;4973090;28;20088;-75
2021/12/14 03:15:36;;;;;;;28.67;13.90;;;;;;;;;;5010678;28;20034;-75
2021/12/14 03:18:07;;;;;;;37.25;13.82;;;;;;;;;;5008049;28;20065;-75
2021/12/14 03:20:37;;;;;;;40.38;14.80;;;;;;;;;;5007261;28;20141;-75
2021/12/14 03:23:07;;;;;;;35.38;14.00;;;;;;;;;;5003723;28;20050;-75
2021/12/14 03:25:38;;;;;;;37.92;14.02;;;;;;;;;;4987711;28;20042;-75
2021/12/14 03:28:05;;;;;;;27.33;12.95;;;;;;;;;;4984727;28;20042;-75
2021/12/14 03:30:39;;;;;;;32.40;12.80;;;;;;;;;;4985388;28;20134;-75
2021/12/14 03:33:12;;;;;;;32.33;12.63;;;;;;;;;;4982888;28;20056;-75
2021/12/14 03:35:45;;;;;;;24.65;11.50;;;;;;;;;;4990077;28;20062;-75
2021/12/14 03:38:25;;;;;;;23.60;11.50;;;;;;;;;;4990610;28;20140;-75
2021/12/14 03:41:08;;;;;;;38.65;12.77;;;;;;;;;;4996788;28;20076;-75
2021/12/14 03:43:35;;;;;;;24.55;11.40;;;;;;;;;;4991098;28;20054;-74
2021/12/14 03:46:08;;;;;;;21.90;11.02;;;;;;;;;;4990706;28;20092;-75
2021/12/14 03:48:37;;;;;;;38.65;12.80;;;;;;;;;;4990721;28;20309;-75
2021/12/14 03:51:04;;;;;;;29.05;11.20;;;;;;;;;;5002564;28;20097;-75
2021/12/14 03:53:32;;;;;;;23.40;11.18;;;;;;;;;;4985484;28;20038;-74
2021/12/14 03:56:02;;;;;;;41.40;13.95;;;;;;;;;;4986780;28;20053;-75
2021/12/14 03:58:35;;;;;;;27.08;11.05;;;;;;;;;;4972309;28;20067;-75
2021/12/14 04:01:12;;;;;;;26.35;11.50;;;;;;;;;;4971944;28;20045;-75
2021/12/14 04:03:47;;;;;;;23.57;9.70;;;;;;;;;;5003277;28;20034;-75
2021/12/14 04:06:20;;;;;;;31.23;11.77;;;;;;;;;;4989657;28;20836;-75
2021/12/14 04:08:48;;;;;;;28.45;11.00;;;;;;;;;;4989092;28;20050;-75
2021/12/14 04:11:18;;;;;;;30.35;11.90;;;;;;;;;;4999516;28;20517;-75
2021/12/14 04:13:48;;;;;;;26.00;11.40;;;;;;;;;;4990335;28;20034;-75
2021/12/14 04:16:23;;;;;;;35.60;12.70;;;;;;;;;;4972819;28;20042;-75
2021/12/14 04:18:55;;;;;;;40.80;13.38;;;;;;;;;;4990713;28;20034;-75
2021/12/14 04:21:25;;;;;;;35.30;14.10;;;;;;;;;;4989882;28;20053;-75
2021/12/14 04:23:55;;;;;;;44.42;15.00;;;;;;;;;;4990147;28;20034;-75
2021/12/14 04:26:23;;;;;;;59.40;17.05;;;;;;;;;;4979655;28;20052;-75
2021/12/14 04:28:53;;;;;;;49.90;16.17;;;;;;;;;;5004053;28;20057;-75
2021/12/14 04:31:21;;;;;;;43.90;15.07;;;;;;;;;;4986465;28;20108;-75
2021/12/14 04:33:52;;;;;;;41.80;14.50;;;;;;;;;;4990523;28;20048;-75
2021/12/14 04:36:22;;;;;;;34.33;13.45;;;;;;;;;;4985408;28;20038;-75
2021/12/14 04:39:40;;;;;;;42.30;15.15;;;;;;;;;;4973955;28;20042;-75
2021/12/14 04:53:13;;;;;;;54.58;15.57;;;;;;;;;;4942942;28;20066;-74
2021/12/14 04:55:42;;;;;;;43.92;14.68;;;;;;;;;;4892510;28;20087;-75
2021/12/14 04:58:10;;;;;;;45.17;15.43;;;;;;;;;;4930880;29;20554;-75
2021/12/14 05:00:42;;;;;;;49.20;15.38;;;;;;;;;;4927916;28;20190;-74
2021/12/14 05:03:24;;;;;;;54.80;18.55;;;;;;;;;;4927565;29;20556;-75
2021/12/14 05:06:08;;;;;;;37.63;14.85;;;;;;;;;;4935630;28;20500;-75
2021/12/14 05:11:06;;;;;;;40.92;13.70;;;;;;;;;;4929639;29;20126;-75
2021/12/14 05:13:37;;;;;;;31.52;11.98;;;;;;;;;;4928766;28;20052;-75
2021/12/14 05:16:07;;;;;;;38.05;13.25;;;;;;;;;;4907369;29;20051;-75
2021/12/14 05:18:35;;;;;;;27.70;11.80;;;;;;;;;;4966357;28;20081;-75
2021/12/14 05:21:03;;;;;;;34.80;12.63;;;;;;;;;;4971634;28;20081;-74
2021/12/14 05:23:32;;;;;;;28.83;12.20;;;;;;;;;;4992885;28;20612;-75
2021/12/14 05:26:03;;;;;;;;;;;;;;;;;;4982721;28;20038;-75
2021/12/14 05:28:33;;;;;;;44.60;15.63;;;;;;;;;;4988918;28;20290;-75
2021/12/14 05:31:06;;;;;;;34.25;13.68;;;;;;;;;;4963363;28;20054;-74
2021/12/14 05:33:38;;;;;;;34.20;13.85;;;;;;;;;;4980824;28;20088;-74
2021/12/14 05:36:26;;;;;;;29.70;12.88;;;;;;;;;;4968267;28;20364;-74
2021/12/14 05:39:44;;;;;;;32.58;12.63;;;;;;;;;;4988770;28;20045;-75
2021/12/14 05:45:01;;;;;;;33.22;12.10;;;;;;;;;;5006322;28;20058;-75
2021/12/14 05:47:29;;;;;;;46.15;12.52;;;;;;;;;;4981621;28;20093;-75
2021/12/14 05:50:05;;;;;;;38.72;12.70;;;;;;;;;;4987653;28;20054;-75
2021/12/14 05:52:33;;;;;;;29.30;12.30;;;;;;;;;;4988969;28;20445;-75
2021/12/14 05:55:16;;;;;;;33.92;12.40;;;;;;;;;;4988546;28;20498;-75
2021/12/14 05:57:44;;;;;;;28.25;11.35;;;;;;;;;;4992585;28;20154;-74
2021/12/14 06:00:14;;;;;;;35.85;13.13;;;;;;;;;;4986187;28;20049;-74
2021/12/14 06:02:48;;;;;;;30.83;12.20;;;;;;;;;;4974789;28;20042;-75
2021/12/14 06:05:18;;;;;;;33.10;11.45;;;;;;;;;;4966766;28;20044;-75
2021/12/14 06:07:46;;;;;;;32.33;13.13;;;;;;;;;;4983567;28;20037;-75
2021/12/14 06:10:14;;;;;;;35.65;13.70;;;;;;;;;;4976500;28;20414;-75
2021/12/14 06:12:43;;;;;;;31.20;14.73;;;;;;;;;;4992468;28;20072;-75
2021/12/14 06:15:17;;;;;;;43.55;15.02;;;;;;;;;;4976736;28;20144;-75
2021/12/14 06:17:46;;;;;;;40.85;14.68;;;;;;;;;;4995274;28;20056;-74
2021/12/14 06:20:43;;;;;;;53.88;17.02;;;;;;;;;;4985155;28;20053;-75
2021/12/14 06:23:13;;;;;;;41.10;15.07;;;;;;;;;;4990787;28;20516;-76
2021/12/14 06:25:59;;;;;;;37.22;13.82;;;;;;;;;;5040948;23;20050;-79
2021/12/14 06:28:39;;;;;;;47.08;14.98;;;;;;;;;;4986805;28;20116;-81
2021/12/14 06:31:09;;;;;;;34.30;13.52;;;;;;;;;;4984736;28;20408;-83
2021/12/14 06:33:36;;;;;;;30.65;12.80;;;;;;;;;;4990840;28;20038;-80
2021/12/14 06:36:10;;;;;;;37.63;14.80;;;;;;;;;;4976376;28;20096;-81
2021/12/14 06:38:38;;;;;;;33.67;14.23;;;;;;;;;;4973324;28;20089;-80
2021/12/14 06:41:09;;;;;;;39.63;15.93;;;;;;;;;;4972207;28;20046;-81
2021/12/14 06:43:39;;;;;;;34.20;14.43;;;;;;;;;;4988631;28;20539;-80
2021/12/14 06:46:16;;;;;;;32.97;13.38;;;;;;;;;;4974926;28;20048;-80
2021/12/14 06:48:49;;;;;;;23.77;11.18;;;;;;;;;;4987913;28;20034;-80
2021/12/14 06:51:22;;;;;;;29.58;15.90;;;;;;;;;;5003742;28;20147;-81
2021/12/14 06:53:59;;;;;;;39.20;17.73;;;;;;;;;;4972769;28;20038;-81
2021/12/14 06:56:50;;;;;;;36.85;15.63;;;;;;;;;;4999735;28;20042;-81
2021/12/14 06:59:40;;;;;;;50.77;23.07;;;;;;;;;;5004735;28;20087;-79
2021/12/14 07:02:09;;;;;;;37.35;14.15;;;;;;;;;;4982365;28;20037;-79
2021/12/14 07:05:00;;;;;;;26.35;12.38;;;;;;;;;;5000025;28;20128;-79
2021/12/14 07:07:33;;;;;;;30.25;11.85;;;;;;;;;;4981660;28;20034;-80
2021/12/14 07:10:07;;;;;;;33.47;11.55;;;;;;;;;;4982612;28;20038;-80
2021/12/14 07:12:40;;;;;;;21.98;11.00;;;;;;;;;;4964829;28;20089;-80
2021/12/14 07:15:10;;;;;;;25.10;10.63;;;;;;;;;;4999731;28;20424;-79
2021/12/14 07:17:44;;;;;;;24.73;11.20;;;;;;;;;;4998313;28;20412;-79
2021/12/14 07:20:11;;;;;;;23.92;11.80;;;;;;;;;;4997854;28;20081;-79
2021/12/14 07:22:41;;;;;;;30.65;12.55;;;;;;;;;;4993639;28;20034;-79
2021/12/14 07:25:14;;;;;;;24.70;11.85;;;;;;;;;;4997287;28;20035;-79
2021/12/14 07:27:46;;;;;;;22.30;10.63;;;;;;;;;;4991826;28;20042;-80
2021/12/14 07:30:16;;;;;;;21.73;10.95;;;;;;;;;;4998463;28;20112;-80
2021/12/14 07:32:45;;;;;;;21.55;11.20;;;;;;;;;;4993934;28;20121;-80
2021/12/14 07:35:24;;;;;;;24.88;11.55;;;;;;;;;;4978948;28;20054;-80
2021/12/14 07:37:52;;;;;;;22.05;10.93;;;;;;;;;;4992474;28;20048;-84
2021/12/14 07:40:21;;;;;;;24.88;11.32;;;;;;;;;;4996201;28;20049;-79
2021/12/14 07:42:49;;;;;;;25.88;11.45;;;;;;;;;;5004095;28;20375;-80
2021/12/14 07:45:24;;;;;;;22.90;11.05;;;;;;;;;;4994535;28;20034;-79
2021/12/14 07:47:52;;;;;;;23.02;10.93;;;;;;;;;;4993370;28;20035;-79
2021/12/14 07:50:20;;;;;;;23.38;11.43;;;;;;;;;;4999160;28;20139;-80
2021/12/14 07:52:47;;;;;;;28.30;12.35;;;;;;;;;;4984685;28;20113;-78
2021/12/14 07:55:18;;;;;;;19.60;10.07;;;;;;;;;;4989563;28;20518;-80
2021/12/14 07:57:48;;;;;;;19.45;9.68;;;;;;;;;;4993581;28;20201;-80
2021/12/14 08:00:23;;;;;;;27.35;12.07;;;;;;;;;;4993541;28;20042;-80
2021/12/14 08:02:56;;;;;;;21.88;10.77;;;;;;;;;;4978008;28;20100;-79
2021/12/14 08:05:28;;;;;;;19.90;10.82;;;;;;;;;;4999005;28;20404;-81
2021/12/14 08:08:03;;;;;;;22.92;11.07;;;;;;;;;;4986748;28;20554;-80
2021/12/14 08:10:33;;;;;;;25.40;10.48;;;;;;;;;;4998623;28;20049;-80
2021/12/14 08:13:13;;;;;;;26.67;11.05;;;;;;;;;;4994196;28;20133;-80
2021/12/14 08:15:53;;;;;;;23.50;10.13;;;;;;;;;;4990792;28;20503;-80
2021/12/14 08:18:25;;;;;;;24.80;10.48;;;;;;;;;;4967411;28;20043;-81
2021/12/14 08:20:57;;;;;;;32.30;12.02;;;;;;;;;;4956856;28;20054;-80
2021/12/14 08:23:29;;;;;;;27.73;11.85;;;;;;;;;;4967188;28;20568;-81
2021/12/14 08:25:59;;;;;;;32.25;13.00;;;;;;;;;;4968993;28;20174;-80
2021/12/14 08:28:27;;;;;;;32.03;11.77;;;;;;;;;;4970049;28;20039;-80
2021/12/14 08:31:09;;;;;;;18.58;9.63;;;;;;;;;;4957010;28;20135;-79
2021/12/14 08:33:37;;;;;;;25.42;10.77;;;;;;;;;;4972178;28;20077;-80
2021/12/14 08:36:06;;;;;;;26.20;12.48;;;;;;;;;;4967901;28;20062;-79
2021/12/14 08:38:35;;;;;;;28.40;12.10;;;;;;;;;;4970377;28;20046;-79
2021/12/14 08:41:22;;;;;;;31.55;12.50;;;;;;;;;;4972658;28;20150;-79
2021/12/14 08:43:52;;;;;;;26.08;12.32;;;;;;;;;;4975001;28;20078;-80
2021/12/14 08:46:27;;;;;;;20.40;10.13;;;;;;;;;;4970911;28;20487;-82
2021/12/14 08:48:57;;;;;;;26.70;12.18;;;;;;;;;;4982415;28;20042;-80
2021/12/14 08:51:28;;;;;;;24.38;10.65;;;;;;;;;;5001053;28;20038;-80
2021/12/14 08:53:58;;;;;;;24.15;11.30;;;;;;;;;;4991476;28;20060;-80
2021/12/14 08:56:27;;;;;;;26.92;11.00;;;;;;;;;;4995115;28;20038;-80
2021/12/14 08:58:55;;;;;;;24.05;11.95;;;;;;;;;;4996141;28;20061;-79
2021/12/14 09:01:25;;;;;;;33.17;12.48;;;;;;;;;;4990525;28;20035;-80
2021/12/14 09:03:59;;;;;;;33.05;13.60;;;;;;;;;;4975991;28;20066;-80
2021/12/14 09:06:29;;;;;;;36.47;14.05;;;;;;;;;;4974112;28;20089;-80
2021/12/14 09:09:00;;;;;;;32.25;12.25;;;;;;;;;;4976191;28;20144;-80
2021/12/14 09:11:28;;;;;;;29.65;11.90;;;;;;;;;;4992570;28;20500;-80
2021/12/14 09:13:57;;;;;;;29.20;11.70;;;;;;;;;;5012993;28;20060;-80
2021/12/14 09:16:27;;;;;;;40.75;14.27;;;;;;;;;;5006303;28;20041;-80
2021/12/14 09:18:57;;;;;;;35.53;12.30;;;;;;;;;;4998048;28;20058;-80
2021/12/14 09:21:26;;;;;;;38.83;12.55;;;;;;;;;;4993533;28;20046;-79
2021/12/14 09:23:57;;;;;;;33.45;12.27;;;;;;;;;;4998781;28;20042;-80
2021/12/14 09:26:31;;;;;;;42.60;12.45;;;;;;;;;;4997981;28;20058;-80
2021/12/14 09:28:58;;;;;;;31.85;10.77;;;;;;;;;;5007986;28;20296;-81
2021/12/14 09:31:32;;;;;;;28.73;12.18;;;;;;;;;;4976677;28;20042;-80
2021/12/14 09:34:00;;;;;;;30.15;11.57;;;;;;;;;;4997921;28;20046;-80
2021/12/14 09:36:30;;;;;;;40.78;12.88;;;;;;;;;;4975405;28;20083;-80
2021/12/14 09:39:01;;;;;;;40.85;12.95;;;;;;;;;;4994037;28;20057;-81
2021/12/14 09:41:31;;;;;;;34.23;11.13;;;;;;;;;;4995302;28;20042;-81
2021/12/14 09:43:58;;;;;;;40.67;11.63;;;;;;;;;;4979734;28;20677;-80
2021/12/14 09:46:26;;;;;;;46.38;12.93;;;;;;;;;;4976495;28;20038;-80
2021/12/14 09:48:59;;;;;;;40.50;11.57;;;;;;;;;;4994811;28;20093;-79
2021/12/14 09:51:30;;;;;;;36.08;11.25;;;;;;;;;;4991330;28;20038;-79
2021/12/14 09:54:01;;;;;;;38.63;12.60;;;;;;;;;;4992174;28;20034;-80
2021/12/14 09:56:33;;;;;;;29.58;10.40;;;;;;;;;;4995831;28;20061;-80
2021/12/14 09:59:00;;;;;;;;;;;;;;;;;;5004680;28;20069;-80
2021/12/14 10:01:32;;;;;;;27.98;10.20;;;;;;;;;;4994970;28;19921;-79
2021/12/14 10:03:59;;;;;;;;;;;;;;;;;;5004472;28;20037;-79
2021/12/14 10:06:29;;;;;;;26.08;10.30;;;;;;;;;;4993779;28;19940;-80
2021/12/14 10:09:00;;;;;;;37.90;11.63;;;;;;;;;;4998836;28;20042;-83
2021/12/14 10:11:41;;;;;;;37.20;11.25;;;;;;;;;;4993100;28;20041;-80
2021/12/14 10:14:09;;;;;;;38.95;11.25;;;;;;;;;;4996040;28;20405;-80
2021/12/14 10:16:36;;;;;;;34.95;11.43;;;;;;;;;;5003007;28;20046;-81
2021/12/14 10:19:06;;;;;;;39.40;10.95;;;;;;;;;;4995179;28;20066;-80
2021/12/14 10:21:39;;;;;;;32.63;10.90;;;;;;;;;;4991322;28;20510;-80
2021/12/14 10:24:07;;;;;;;28.38;10.77;;;;;;;;;;4977254;28;20076;-80
2021/12/14 10:26:36;;;;;;;39.08;12.35;;;;;;;;;;4992498;28;20039;-79
2021/12/14 10:29:04;;;;;;;33.75;11.18;;;;;;;;;;4995260;28;20048;-79
2021/12/14 10:31:33;;;;;;;34.58;11.77;;;;;;;;;;4989699;28;20043;-80
2021/12/14 10:34:03;;;;;;;42.70;11.70;;;;;;;;;;4978757;28;20050;-80
2021/12/14 10:36:39;;;;;;;37.13;11.63;;;;;;;;;;4992706;28;20118;-79
2021/12/14 10:39:23;;;;;;;32.15;11.63;;;;;;;;;;4991589;28;20046;-80
2021/12/14 10:44:42;;;;;;;20.60;10.35;;;;;;;;;;4990591;28;20042;-79
2021/12/14 10:47:11;;;;;;;30.27;11.40;;;;;;;;;;4989884;28;20038;-80
2021/12/14 10:49:38;;;;;;;30.42;11.98;;;;;;;;;;4993834;28;20340;-80
2021/12/14 10:52:10;;;;;;;22.83;10.77;;;;;;;;;;4993781;28;20035;-80
2021/12/14 10:54:37;;;;;;;23.77;9.93;;;;;;;;;;4973154;28;20038;-80
2021/12/14 10:57:06;;;;;;;38.30;12.95;;;;;;;;;;4999561;28;20050;-80
2021/12/14 10:59:36;;;;;;;23.40;10.27;;;;;;;;;;4981887;28;20043;-86
2021/12/14 11:02:04;;;;;;;24.92;11.23;;;;;;;;;;4975974;28;20050;-80
2021/12/14 11:04:42;;;;;;;32.10;13.20;;;;;;;;;;4974073;28;20050;-80
2021/12/14 11:07:15;;;;;;;20.00;10.38;;;;;;;;;;4981420;28;20065;-81
2021/12/14 11:09:45;;;;;;;15.38;9.18;;;;;;;;;;4979092;28;20046;-81
2021/12/14 11:12:21;;;;;;;18.27;10.73;;;;;;;;;;4999907;28;20140;-80
2021/12/14 11:14:50;;;;;;;16.50;8.68;;;;;;;;;;5005179;28;20038;-81
2021/12/14 11:20:10;;;;;;;13.95;8.63;;;;;;;;;;4994421;28;20053;-80
2021/12/14 11:22:46;;;;;;;17.10;8.57;;;;;;;;;;5003700;28;20033;-80
2021/12/14 11:25:36;;;;;;;11.43;7.07;;;;;;;;;;4991681;28;20077;-81
2021/12/14 11:28:05;;;;;;;10.73;7.68;;;;;;;;;;5006115;28;20042;-81
2021/12/14 11:30:35;;;;;;;15.93;8.57;;;;;;;;;;4992223;28;20038;-81
2021/12/14 11:33:19;;;;;;;14.38;8.60;;;;;;;;;;4989229;28;20294;-80
2021/12/14 11:35:53;;;;;;;13.77;8.35;;;;;;;;;;4983835;28;20562;-81
2021/12/14 11:38:53;;;;;;;16.98;9.38;;;;;;;;;;4987822;28;20408;-84
2021/12/14 11:41:30;;;;;;;14.77;9.30;;;;;;;;;;4930594;29;20043;-81
2021/12/14 11:44:00;;;;;;;14.13;8.30;;;;;;;;;;4934299;29;20044;-80
2021/12/14 11:46:29;;;;;;;12.85;8.95;;;;;;;;;;4937815;29;20089;-80
2021/12/14 11:48:59;;;;;;;14.90;9.55;;;;;;;;;;4917825;29;20114;-81
2021/12/14 11:51:28;;;;;;;15.00;8.93;;;;;;;;;;4940800;29;20050;-81
2021/12/14 11:53:56;;;;;;;18.33;10.90;;;;;;;;;;4939499;29;20055;-80
2021/12/14 11:56:25;;;;;;;15.90;9.32;;;;;;;;;;4926834;29;20056;-80
2021/12/14 11:58:56;;;;;;;15.13;9.50;;;;;;;;;;4932330;29;20135;-81
2021/12/14 12:01:23;;;;;;;15.70;10.18;;;;;;;;;;4934031;29;20463;-81
2021/12/14 12:03:56;;;;;;;17.30;11.20;;;;;;;;;;4943166;29;20537;-80
2021/12/14 12:09:28;;;;;;;17.67;9.80;;;;;;;;;;4930923;29;20039;-80
2021/12/14 12:09:41;;;;;;;17.63;10.32;;;;;;;;;;4939212;29;20039;-79
2021/12/14 12:12:35;;;;;;;20.67;11.35;;;;;;;;;;4943156;29;20054;-80
2021/12/14 12:15:02;;;;;;;14.23;9.23;;;;;;;;;;4935716;29;20055;-80
2021/12/14 12:17:33;;;;;;;20.05;10.05;;;;;;;;;;4987112;28;20106;-79
2021/12/14 12:20:08;;;;;;;19.73;10.20;;;;;;;;;;5006913;28;20078;-80
2021/12/14 12:22:43;;;;;;;20.23;11.18;;;;;;;;;;4994661;28;20046;-81
2021/12/14 12:25:17;;;;;;;15.35;9.77;;;;;;;;;;4999521;28;20078;-81
2021/12/14 12:27:45;;;;;;;21.27;10.90;;;;;;;;;;5013212;23;20050;-75
2021/12/14 12:30:55;;;;;;;15.95;10.10;;;;;;;;;;5003673;28;20042;-75
2021/12/14 12:33:18;;;;;;;21.23;11.02;;;;;;;;;;4978494;28;20431;-76
2021/12/14 12:35:55;;;;;;;19.17;10.93;;;;;;;;;;5001616;28;20042;-76
2021/12/14 12:38:28;;;;;;;16.23;10.52;;;;;;;;;;5003173;28;20132;-76
2021/12/14 12:41:01;;;;;;;16.30;10.38;;;;;;;;;;4999064;28;20470;-76
2021/12/14 12:43:31;;;;;;;13.70;8.93;;;;;;;;;;5006947;28;20030;-75
2021/12/14 12:46:09;;;;;;;18.08;9.95;;;;;;;;;;5007550;28;20048;-76
2021/12/14 12:48:43;;;;;;;16.05;9.98;;;;;;;;;;5005602;28;20077;-76
2021/12/14 12:51:11;;;;;;;19.10;10.60;;;;;;;;;;5005915;28;20082;-76
2021/12/14 12:53:39;;;;;;;15.52;9.65;;;;;;;;;;5011202;28;20065;-76
2021/12/14 12:56:09;;;;;;;15.85;9.88;;;;;;;;;;4965942;28;20484;-76
2021/12/14 12:58:40;;;;;;;16.38;10.20;;;;;;;;;;4988015;28;20538;-76
2021/12/14 13:01:10;;;;;;;17.77;9.68;;;;;;;;;;5002678;28;20108;-77
2021/12/14 13:03:40;;;;;;;15.77;9.55;;;;;;;;;;5003355;28;20446;-76
2021/12/14 13:06:11;;;;;;;15.38;10.20;;;;;;;;;;4999359;28;20045;-76
2021/12/14 13:08:40;;;;;;;13.07;8.68;;;;;;;;;;4969404;28;20438;-76
2021/12/14 13:11:08;;;;;;;15.95;9.85;;;;;;;;;;5000140;28;20132;-76
2021/12/14 13:13:38;;;;;;;14.25;8.73;;;;;;;;;;4994074;28;20100;-75
2021/12/14 13:16:08;;;;;;;18.27;9.77;;;;;;;;;;4997015;28;20568;-76
2021/12/14 13:18:46;;;;;;;12.50;8.75;;;;;;;;;;4995350;28;20097;-76
2021/12/14 13:21:33;;;;;;;14.73;9.27;;;;;;;;;;4994967;28;20494;-76
2021/12/14 13:24:04;;;;;;;13.23;8.15;;;;;;;;;;5004193;28;20034;-75
2021/12/14 13:26:36;;;;;;;10.48;7.72;;;;;;;;;;4989752;28;20151;-76
2021/12/14 13:29:14;;;;;;;13.90;8.52;;;;;;;;;;4990611;28;20493;-76
2021/12/14 13:31:51;;;;;;;14.75;8.55;;;;;;;;;;4999524;28;20045;-76
2021/12/14 13:34:42;;;;;;;12.02;7.57;;;;;;;;;;4991109;28;20124;-75
2021/12/14 13:37:10;;;;;;;13.10;8.00;;;;;;;;;;5008632;28;20054;-76
2021/12/14 13:39:39;;;;;;;16.50;8.98;;;;;;;;;;5005904;28;20060;-76
2021/12/14 13:42:19;;;;;;;16.35;8.60;;;;;;;;;;4961829;28;20479;-76
2021/12/14 13:44:50;;;;;;;23.15;10.55;;;;;;;;;;5000209;28;20413;-76
2021/12/14 13:47:19;;;;;;;20.02;11.40;;;;;;;;;;4990135;28;20042;-76
2021/12/14 13:49:47;;;;;;;17.65;10.70;;;;;;;;;;5006717;28;20073;-76
2021/12/14 13:52:15;;;;;;;17.95;10.90;;;;;;;;;;5011765;28;20076;-76
2021/12/14 13:55:02;;;;;;;18.00;10.25;;;;;;;;;;5014065;28;20129;-76
2021/12/14 13:57:29;;;;;;;20.15;12.00;;;;;;;;;;4991937;28;20046;-77
2021/12/14 14:00:00;;;;;;;18.88;11.68;;;;;;;;;;4992538;28;20137;-76
2021/12/14 14:02:28;;;;;;;17.60;10.40;;;;;;;;;;5003995;28;20042;-76
2021/12/14 14:04:55;;;;;;;24.35;13.20;;;;;;;;;;5007872;28;20509;-76
2021/12/14 14:07:23;;;;;;;17.23;11.30;;;;;;;;;;5004649;28;20042;-77
2021/12/14 14:09:51;;;;;;;16.10;9.90;;;;;;;;;;4990576;28;20112;-76
2021/12/14 14:12:26;;;;;;;18.08;11.10;;;;;;;;;;5005815;28;20042;-76
2021/12/14 14:14:54;;;;;;;16.63;9.25;;;;;;;;;;5015197;28;20330;-76
2021/12/14 14:17:24;;;;;;;19.45;10.55;;;;;;;;;;5003156;28;20132;-76
2021/12/14 14:19:56;;;;;;;16.17;9.45;;;;;;;;;;5005871;28;20133;-76
2021/12/14 14:22:23;;;;;;;13.45;8.88;;;;;;;;;;4973173;28;20060;-77
2021/12/14 14:25:13;;;;;;;13.20;8.27;;;;;;;;;;5003992;28;20353;-76
2021/12/14 14:27:49;;;;;;;20.95;10.38;;;;;;;;;;4976077;28;20381;-76
2021/12/14 14:30:22;;;;;;;15.65;8.23;;;;;;;;;;5022040;28;20049;-76
2021/12/14 14:32:59;;;;;;;13.82;8.90;;;;;;;;;;4987172;28;20127;-76
2021/12/14 14:35:44;;;;;;;16.02;8.30;;;;;;;;;;4997041;28;20092;-76
2021/12/14 14:38:27;;;;;;;11.50;8.00;;;;;;;;;;4966374;28;20046;-76
2021/12/14 14:40:55;;;;;;;14.27;8.32;;;;;;;;;;4997259;28;20046;-76
2021/12/14 14:43:43;;;;;;;15.48;8.93;;;;;;;;;;4999196;28;20038;-76
2021/12/14 14:46:11;;;;;;;15.05;8.68;;;;;;;;;;4977774;28;20454;-76
2021/12/14 14:48:39;;;;;;;17.38;9.60;;;;;;;;;;4981923;28;20058;-76
2021/12/14 14:51:06;;;;;;;14.82;8.20;;;;;;;;;;4995774;28;20041;-76
2021/12/14 14:53:36;;;;;;;13.20;8.35;;;;;;;;;;4990830;28;20041;-76
2021/12/14 14:56:13;;;;;;;14.38;8.60;;;;;;;;;;4991950;28;20073;-76
2021/12/14 14:58:42;;;;;;;12.43;8.35;;;;;;;;;;4975534;28;20045;-76
2021/12/14 15:01:15;;;;;;;13.82;8.55;;;;;;;;;;4990867;28;20043;-76
2021/12/14 15:03:45;;;;;;;14.60;8.23;;;;;;;;;;4983736;28;20054;-76
2021/12/14 15:06:32;;;;;;;18.48;9.55;;;;;;;;;;4995390;28;20074;-76
2021/12/14 15:09:00;;;;;;;15.55;9.48;;;;;;;;;;4967287;28;20042;-76
2021/12/14 15:11:31;;;;;;;24.25;12.65;;;;;;;;;;4998187;28;20433;-77
2021/12/14 15:13:59;;;;;;;13.90;8.60;;;;;;;;;;5006158;28;20049;-76
2021/12/14 15:16:38;;;;;;;14.18;8.60;;;;;;;;;;5002769;28;20049;-76
2021/12/14 15:19:06;;;;;;;15.68;10.00;;;;;;;;;;5004460;28;20161;-76